sensor_id;sensor_type;location;lat;lon;timestamp;temperature;humidity
68804;SHT31;55787;52.678;13.314;2023-06-04T00:01:12;7.47;71.24
68804;SHT31;55787;52.678;13.314;2023-06-04T00:03:42;7.44;71.69
68804;SHT31;55787;52.678;13.314;2023-06-04T00:06:09;7.44;72.14
68804;SHT31;55787;52.678;13.314;2023-06-04T00:08:36;7.40;72.18
68804;SHT31;55787;52.678;13.314;2023-06-04T00:11:03;7.33;71.55
68804;SHT31;55787;52.678;13.314;2023-06-04T00:13:30;7.28;71.67
68804;SHT31;55787;52.678;13.314;2023-06-04T00:15:57;7.26;71.87
68804;SHT31;55787;52.678;13.314;2023-06-04T00:18:24;7.22;72.47
68804;SHT31;55787;52.678;13.314;2023-06-04T00:20:51;7.16;73.01
68804;SHT31;55787;52.678;13.314;2023-06-04T00:23:17;7.12;72.49
68804;SHT31;55787;52.678;13.314;2023-06-04T00:25:44;7.07;73.00
68804;SHT31;55787;52.678;13.314;2023-06-04T00:28:11;7.03;73.89
68804;SHT31;55787;52.678;13.314;2023-06-04T00:30:37;6.99;74.22
68804;SHT31;55787;52.678;13.314;2023-06-04T00:33:05;6.93;74.43
68804;SHT31;55787;52.678;13.314;2023-06-04T00:35:32;6.91;74.02
68804;SHT31;55787;52.678;13.314;2023-06-04T00:37:59;6.85;74.40
68804;SHT31;55787;52.678;13.314;2023-06-04T00:40:26;6.83;74.39
68804;SHT31;55787;52.678;13.314;2023-06-04T00:42:52;6.79;74.55
68804;SHT31;55787;52.678;13.314;2023-06-04T00:45:19;6.76;76.23
68804;SHT31;55787;52.678;13.314;2023-06-04T00:47:46;6.72;75.60
68804;SHT31;55787;52.678;13.314;2023-06-04T00:50:14;6.65;75.93
68804;SHT31;55787;52.678;13.314;2023-06-04T00:52:40;6.61;76.09
68804;SHT31;55787;52.678;13.314;2023-06-04T00:55:08;6.58;77.47
68804;SHT31;55787;52.678;13.314;2023-06-04T00:57:36;6.56;77.63
68804;SHT31;55787;52.678;13.314;2023-06-04T01:00:04;6.52;78.25
68804;SHT31;55787;52.678;13.314;2023-06-04T01:02:33;6.46;77.32
68804;SHT31;55787;52.678;13.314;2023-06-04T01:05:15;6.45;77.03
68804;SHT31;55787;52.678;13.314;2023-06-04T01:07:44;6.41;76.78
68804;SHT31;55787;52.678;13.314;2023-06-04T01:10:13;6.35;77.48
68804;SHT31;55787;52.678;13.314;2023-06-04T01:12:41;6.35;77.44
68804;SHT31;55787;52.678;13.314;2023-06-04T01:15:09;6.30;77.55
68804;SHT31;55787;52.678;13.314;2023-06-04T01:17:48;6.28;77.45
68804;SHT31;55787;52.678;13.314;2023-06-04T01:23:36;6.21;77.70
68804;SHT31;55787;52.678;13.314;2023-06-04T01:26:05;6.20;77.99
68804;SHT31;55787;52.678;13.314;2023-06-04T01:28:34;6.17;78.66
68804;SHT31;55787;52.678;13.314;2023-06-04T01:31:03;6.13;78.77
68804;SHT31;55787;52.678;13.314;2023-06-04T01:33:30;6.10;78.93
68804;SHT31;55787;52.678;13.314;2023-06-04T01:35:57;6.07;79.80
68804;SHT31;55787;52.678;13.314;2023-06-04T01:38:24;6.03;80.29
68804;SHT31;55787;52.678;13.314;2023-06-04T01:40:51;5.99;79.40
68804;SHT31;55787;52.678;13.314;2023-06-04T01:43:22;5.92;79.53
68804;SHT31;55787;52.678;13.314;2023-06-04T01:45:50;5.90;79.99
68804;SHT31;55787;52.678;13.314;2023-06-04T01:48:16;5.83;79.59
68804;SHT31;55787;52.678;13.314;2023-06-04T01:50:44;5.82;79.38
68804;SHT31;55787;52.678;13.314;2023-06-04T01:53:10;5.76;80.26
68804;SHT31;55787;52.678;13.314;2023-06-04T01:55:37;5.76;81.39
68804;SHT31;55787;52.678;13.314;2023-06-04T01:58:04;5.72;81.01
68804;SHT31;55787;52.678;13.314;2023-06-04T02:00:31;5.67;80.66
68804;SHT31;55787;52.678;13.314;2023-06-04T02:02:58;5.66;80.57
68804;SHT31;55787;52.678;13.314;2023-06-04T02:05:26;5.62;80.49
68804;SHT31;55787;52.678;13.314;2023-06-04T02:07:53;5.62;80.52
68804;SHT31;55787;52.678;13.314;2023-06-04T02:10:20;5.58;80.44
68804;SHT31;55787;52.678;13.314;2023-06-04T02:13:00;5.55;81.38
68804;SHT31;55787;52.678;13.314;2023-06-04T02:15:30;5.51;80.92
68804;SHT31;55787;52.678;13.314;2023-06-04T02:17:59;5.45;80.96
68804;SHT31;55787;52.678;13.314;2023-06-04T02:20:26;5.43;81.95
68804;SHT31;55787;52.678;13.314;2023-06-04T02:22:56;5.38;81.30
68804;SHT31;55787;52.678;13.314;2023-06-04T02:25:23;5.39;81.37
68804;SHT31;55787;52.678;13.314;2023-06-04T02:27:50;5.31;81.22
68804;SHT31;55787;52.678;13.314;2023-06-04T02:30:17;5.27;81.38
68804;SHT31;55787;52.678;13.314;2023-06-04T02:32:43;5.24;81.80
68804;SHT31;55787;52.678;13.314;2023-06-04T02:35:16;5.20;81.87
68804;SHT31;55787;52.678;13.314;2023-06-04T02:37:44;5.15;82.09
68804;SHT31;55787;52.678;13.314;2023-06-04T02:40:11;5.08;82.31
68804;SHT31;55787;52.678;13.314;2023-06-04T02:42:38;5.07;82.14
68804;SHT31;55787;52.678;13.314;2023-06-04T02:45:05;5.04;82.40
68804;SHT31;55787;52.678;13.314;2023-06-04T02:47:32;5.01;82.64
68804;SHT31;55787;52.678;13.314;2023-06-04T02:49:58;5.00;83.24
68804;SHT31;55787;52.678;13.314;2023-06-04T02:52:25;4.97;82.90
68804;SHT31;55787;52.678;13.314;2023-06-04T02:54:52;4.93;83.36
68804;SHT31;55787;52.678;13.314;2023-06-04T02:57:19;4.91;83.36
68804;SHT31;55787;52.678;13.314;2023-06-04T02:59:46;4.91;83.25
68804;SHT31;55787;52.678;13.314;2023-06-04T03:02:12;4.90;83.29
68804;SHT31;55787;52.678;13.314;2023-06-04T03:04:41;4.85;83.00
68804;SHT31;55787;52.678;13.314;2023-06-04T03:07:09;4.87;83.00
68804;SHT31;55787;52.678;13.314;2023-06-04T03:09:37;4.83;82.95
68804;SHT31;55787;52.678;13.314;2023-06-04T03:12:05;4.81;83.29
68804;SHT31;55787;52.678;13.314;2023-06-04T03:14:32;4.83;83.09
68804;SHT31;55787;52.678;13.314;2023-06-04T03:17:00;4.80;83.24
68804;SHT31;55787;52.678;13.314;2023-06-04T03:19:35;4.79;83.37
68804;SHT31;55787;52.678;13.314;2023-06-04T03:22:02;4.80;83.64
68804;SHT31;55787;52.678;13.314;2023-06-04T03:24:36;4.80;83.39
68804;SHT31;55787;52.678;13.314;2023-06-04T03:27:04;4.83;83.61
68804;SHT31;55787;52.678;13.314;2023-06-04T03:29:32;4.80;83.90
68804;SHT31;55787;52.678;13.314;2023-06-04T03:31:59;4.80;83.65
68804;SHT31;55787;52.678;13.314;2023-06-04T03:34:27;4.81;84.28
68804;SHT31;55787;52.678;13.314;2023-06-04T03:36:54;4.88;84.37
68804;SHT31;55787;52.678;13.314;2023-06-04T03:39:21;4.90;84.40
68804;SHT31;55787;52.678;13.314;2023-06-04T03:41:48;4.95;84.04
68804;SHT31;55787;52.678;13.314;2023-06-04T03:44:16;4.94;83.94
68804;SHT31;55787;52.678;13.314;2023-06-04T03:46:44;5.01;83.73
68804;SHT31;55787;52.678;13.314;2023-06-04T03:49:12;5.02;83.78
68804;SHT31;55787;52.678;13.314;2023-06-04T03:51:41;5.08;83.43
68804;SHT31;55787;52.678;13.314;2023-06-04T03:54:08;5.14;83.17
68804;SHT31;55787;52.678;13.314;2023-06-04T03:56:34;5.17;83.51
68804;SHT31;55787;52.678;13.314;2023-06-04T03:59:02;5.22;83.91
68804;SHT31;55787;52.678;13.314;2023-06-04T04:01:28;5.32;83.92
68804;SHT31;55787;52.678;13.314;2023-06-04T04:03:55;5.36;84.02
68804;SHT31;55787;52.678;13.314;2023-06-04T04:06:22;5.43;84.02
68804;SHT31;55787;52.678;13.314;2023-06-04T04:08:49;5.53;84.00
68804;SHT31;55787;52.678;13.314;2023-06-04T04:11:16;5.58;84.00
68804;SHT31;55787;52.678;13.314;2023-06-04T04:13:46;5.67;83.76
68804;SHT31;55787;52.678;13.314;2023-06-04T04:16:13;5.79;83.77
68804;SHT31;55787;52.678;13.314;2023-06-04T04:18:42;5.89;83.72
68804;SHT31;55787;52.678;13.314;2023-06-04T04:21:10;6.02;83.79
68804;SHT31;55787;52.678;13.314;2023-06-04T04:23:38;6.11;83.88
68804;SHT31;55787;52.678;13.314;2023-06-04T04:26:08;6.25;83.68
68804;SHT31;55787;52.678;13.314;2023-06-04T04:28:36;6.37;83.77
68804;SHT31;55787;52.678;13.314;2023-06-04T04:31:04;6.49;83.44
68804;SHT31;55787;52.678;13.314;2023-06-04T04:33:31;6.67;83.40
68804;SHT31;55787;52.678;13.314;2023-06-04T04:35:59;6.78;83.02
68804;SHT31;55787;52.678;13.314;2023-06-04T04:38:26;6.95;82.95
68804;SHT31;55787;52.678;13.314;2023-06-04T04:40:54;7.14;82.47
68804;SHT31;55787;52.678;13.314;2023-06-04T04:43:32;7.28;82.07
68804;SHT31;55787;52.678;13.314;2023-06-04T04:45:59;7.40;82.10
68804;SHT31;55787;52.678;13.314;2023-06-04T04:48:26;7.57;81.71
68804;SHT31;55787;52.678;13.314;2023-06-04T04:50:53;7.68;81.20
68804;SHT31;55787;52.678;13.314;2023-06-04T04:53:20;7.82;80.94
68804;SHT31;55787;52.678;13.314;2023-06-04T04:55:47;7.99;80.67
68804;SHT31;55787;52.678;13.314;2023-06-04T04:58:14;8.17;80.41
68804;SHT31;55787;52.678;13.314;2023-06-04T05:00:40;8.36;80.21
68804;SHT31;55787;52.678;13.314;2023-06-04T05:03:07;8.56;78.71
68804;SHT31;55787;52.678;13.314;2023-06-04T05:05:34;8.74;78.88
68804;SHT31;55787;52.678;13.314;2023-06-04T05:08:00;8.95;78.17
68804;SHT31;55787;52.678;13.314;2023-06-04T05:10:27;9.18;77.63
68804;SHT31;55787;52.678;13.314;2023-06-04T05:12:57;9.43;76.53
68804;SHT31;55787;52.678;13.314;2023-06-04T05:15:25;9.69;75.26
68804;SHT31;55787;52.678;13.314;2023-06-04T05:17:53;9.95;74.25
68804;SHT31;55787;52.678;13.314;2023-06-04T05:20:20;10.24;73.13
68804;SHT31;55787;52.678;13.314;2023-06-04T05:22:48;10.48;72.32
68804;SHT31;55787;52.678;13.314;2023-06-04T05:25:16;10.72;71.79
68804;SHT31;55787;52.678;13.314;2023-06-04T05:27:42;10.95;71.51
68804;SHT31;55787;52.678;13.314;2023-06-04T05:30:10;11.23;70.53
68804;SHT31;55787;52.678;13.314;2023-06-04T05:32:37;11.48;68.81
68804;SHT31;55787;52.678;13.314;2023-06-04T05:35:08;11.85;67.18
68804;SHT31;55787;52.678;13.314;2023-06-04T05:37:35;12.12;65.81
68804;SHT31;55787;52.678;13.314;2023-06-04T05:40:05;12.36;64.17
68804;SHT31;55787;52.678;13.314;2023-06-04T05:42:32;12.61;63.33
68804;SHT31;55787;52.678;13.314;2023-06-04T05:44:59;12.85;62.28
68804;SHT31;55787;52.678;13.314;2023-06-04T05:47:27;13.10;60.39
68804;SHT31;55787;52.678;13.314;2023-06-04T05:49:55;13.32;59.86
68804;SHT31;55787;52.678;13.314;2023-06-04T05:52:23;13.61;57.72
68804;SHT31;55787;52.678;13.314;2023-06-04T05:54:50;13.82;57.90
68804;SHT31;55787;52.678;13.314;2023-06-04T05:57:16;14.03;57.01
68804;SHT31;55787;52.678;13.314;2023-06-04T05:59:43;14.23;57.12
68804;SHT31;55787;52.678;13.314;2023-06-04T06:02:10;14.40;53.52
68804;SHT31;55787;52.678;13.314;2023-06-04T06:04:37;14.57;52.81
68804;SHT31;55787;52.678;13.314;2023-06-04T06:07:04;14.67;51.76
68804;SHT31;55787;52.678;13.314;2023-06-04T06:09:31;14.91;51.46
68804;SHT31;55787;52.678;13.314;2023-06-04T06:11:58;14.89;49.14
68804;SHT31;55787;52.678;13.314;2023-06-04T06:14:25;15.70;49.64
68804;SHT31;55787;52.678;13.314;2023-06-04T06:16:51;16.85;45.59
68804;SHT31;55787;52.678;13.314;2023-06-04T06:19:19;18.30;43.15
68804;SHT31;55787;52.678;13.314;2023-06-04T06:21:46;19.12;40.82
68804;SHT31;55787;52.678;13.314;2023-06-04T06:24:13;20.77;38.08
68804;SHT31;55787;52.678;13.314;2023-06-04T06:26:40;22.16;35.94
68804;SHT31;55787;52.678;13.314;2023-06-04T06:29:07;22.32;34.29
68804;SHT31;55787;52.678;13.314;2023-06-04T06:31:33;22.67;35.92
68804;SHT31;55787;52.678;13.314;2023-06-04T06:34:00;23.79;32.77
68804;SHT31;55787;52.678;13.314;2023-06-04T06:36:27;24.42;30.41
68804;SHT31;55787;52.678;13.314;2023-06-04T06:38:55;23.29;32.08
68804;SHT31;55787;52.678;13.314;2023-06-04T06:41:21;22.61;32.40
68804;SHT31;55787;52.678;13.314;2023-06-04T06:43:48;23.41;32.35
68804;SHT31;55787;52.678;13.314;2023-06-04T06:46:15;23.90;31.41
68804;SHT31;55787;52.678;13.314;2023-06-04T06:48:41;22.70;31.72
68804;SHT31;55787;52.678;13.314;2023-06-04T06:51:11;23.66;31.44
68804;SHT31;55787;52.678;13.314;2023-06-04T06:53:38;24.86;29.74
68804;SHT31;55787;52.678;13.314;2023-06-04T06:56:06;25.71;29.32
68804;SHT31;55787;52.678;13.314;2023-06-04T06:58:34;26.73;28.46
68804;SHT31;55787;52.678;13.314;2023-06-04T07:01:02;26.88;28.70
68804;SHT31;55787;52.678;13.314;2023-06-04T07:03:29;27.03;28.20
68804;SHT31;55787;52.678;13.314;2023-06-04T07:05:56;27.48;27.14
68804;SHT31;55787;52.678;13.314;2023-06-04T07:08:23;27.85;25.56
68804;SHT31;55787;52.678;13.314;2023-06-04T07:10:50;27.88;25.76
68804;SHT31;55787;52.678;13.314;2023-06-04T07:13:16;27.51;25.91
68804;SHT31;55787;52.678;13.314;2023-06-04T07:15:43;27.86;25.42
68804;SHT31;55787;52.678;13.314;2023-06-04T07:18:09;28.20;25.87
68804;SHT31;55787;52.678;13.314;2023-06-04T07:20:36;28.07;25.47
68804;SHT31;55787;52.678;13.314;2023-06-04T07:23:03;28.04;26.21
68804;SHT31;55787;52.678;13.314;2023-06-04T07:25:30;28.39;24.10
68804;SHT31;55787;52.678;13.314;2023-06-04T07:27:56;27.70;25.29
68804;SHT31;55787;52.678;13.314;2023-06-04T07:30:25;27.92;26.02
68804;SHT31;55787;52.678;13.314;2023-06-04T07:32:52;27.48;24.34
68804;SHT31;55787;52.678;13.314;2023-06-04T07:35:19;27.05;26.51
68804;SHT31;55787;52.678;13.314;2023-06-04T07:37:46;26.02;27.40
68804;SHT31;55787;52.678;13.314;2023-06-04T07:40:15;27.67;25.37
68804;SHT31;55787;52.678;13.314;2023-06-04T07:42:43;28.24;26.24
68804;SHT31;55787;52.678;13.314;2023-06-04T07:45:09;28.63;24.91
68804;SHT31;55787;52.678;13.314;2023-06-04T07:47:37;28.61;24.48
68804;SHT31;55787;52.678;13.314;2023-06-04T07:50:04;27.86;24.76
68804;SHT31;55787;52.678;13.314;2023-06-04T07:52:32;26.74;25.98
68804;SHT31;55787;52.678;13.314;2023-06-04T07:54:59;28.67;25.09
68804;SHT31;55787;52.678;13.314;2023-06-04T07:57:26;29.57;24.27
68804;SHT31;55787;52.678;13.314;2023-06-04T07:59:53;27.81;24.20
68804;SHT31;55787;52.678;13.314;2023-06-04T08:02:20;29.67;24.28
68804;SHT31;55787;52.678;13.314;2023-06-04T08:04:47;30.03;22.38
68804;SHT31;55787;52.678;13.314;2023-06-04T08:07:14;30.18;23.75
68804;SHT31;55787;52.678;13.314;2023-06-04T08:09:41;30.39;22.19
68804;SHT31;55787;52.678;13.314;2023-06-04T08:12:08;29.25;23.62
68804;SHT31;55787;52.678;13.314;2023-06-04T08:14:36;29.06;24.17
68804;SHT31;55787;52.678;13.314;2023-06-04T08:17:03;30.22;22.47
68804;SHT31;55787;52.678;13.314;2023-06-04T08:19:30;31.07;23.32
68804;SHT31;55787;52.678;13.314;2023-06-04T08:21:57;31.03;21.00
68804;SHT31;55787;52.678;13.314;2023-06-04T08:24:23;31.75;22.52
68804;SHT31;55787;52.678;13.314;2023-06-04T08:26:50;31.40;20.07
68804;SHT31;55787;52.678;13.314;2023-06-04T08:29:17;30.31;20.96
68804;SHT31;55787;52.678;13.314;2023-06-04T08:31:43;31.48;21.16
68804;SHT31;55787;52.678;13.314;2023-06-04T08:34:10;31.57;21.13
68804;SHT31;55787;52.678;13.314;2023-06-04T08:36:37;31.67;20.08
68804;SHT31;55787;52.678;13.314;2023-06-04T08:39:03;31.57;19.99
68804;SHT31;55787;52.678;13.314;2023-06-04T08:41:47;31.37;20.62
68804;SHT31;55787;52.678;13.314;2023-06-04T08:44:16;31.52;21.39
68804;SHT31;55787;52.678;13.314;2023-06-04T08:46:44;31.82;21.15
68804;SHT31;55787;52.678;13.314;2023-06-04T08:49:12;32.12;20.71
68804;SHT31;55787;52.678;13.314;2023-06-04T08:51:39;32.81;20.55
68804;SHT31;55787;52.678;13.314;2023-06-04T08:54:08;32.28;19.69
68804;SHT31;55787;52.678;13.314;2023-06-04T08:56:35;32.33;19.43
68804;SHT31;55787;52.678;13.314;2023-06-04T08:59:04;32.01;19.75
68804;SHT31;55787;52.678;13.314;2023-06-04T09:01:34;32.04;18.79
68804;SHT31;55787;52.678;13.314;2023-06-04T09:04:03;32.33;19.97
68804;SHT31;55787;52.678;13.314;2023-06-04T09:06:32;33.25;20.30
68804;SHT31;55787;52.678;13.314;2023-06-04T09:09:03;33.22;19.84
68804;SHT31;55787;52.678;13.314;2023-06-04T09:11:45;32.22;20.23
68804;SHT31;55787;52.678;13.314;2023-06-04T09:14:14;33.37;19.16
68804;SHT31;55787;52.678;13.314;2023-06-04T09:16:49;33.68;18.91
68804;SHT31;55787;52.678;13.314;2023-06-04T09:19:18;34.00;19.33
68804;SHT31;55787;52.678;13.314;2023-06-04T09:21:55;33.70;19.67
68804;SHT31;55787;52.678;13.314;2023-06-04T09:24:24;33.25;17.79
68804;SHT31;55787;52.678;13.314;2023-06-04T09:26:51;33.29;18.77
68804;SHT31;55787;52.678;13.314;2023-06-04T09:29:18;33.72;17.74
68804;SHT31;55787;52.678;13.314;2023-06-04T09:31:46;32.50;18.18
68804;SHT31;55787;52.678;13.314;2023-06-04T09:34:14;32.83;18.22
68804;SHT31;55787;52.678;13.314;2023-06-04T09:36:43;33.62;18.54
68804;SHT31;55787;52.678;13.314;2023-06-04T09:39:16;32.73;18.28
68804;SHT31;55787;52.678;13.314;2023-06-04T09:42:08;31.58;18.70
68804;SHT31;55787;52.678;13.314;2023-06-04T09:44:45;31.57;18.54
68804;SHT31;55787;52.678;13.314;2023-06-04T09:47:14;31.92;20.10
68804;SHT31;55787;52.678;13.314;2023-06-04T09:49:46;32.32;19.83
68804;SHT31;55787;52.678;13.314;2023-06-04T09:52:14;33.03;18.49
68804;SHT31;55787;52.678;13.314;2023-06-04T09:54:41;33.41;17.96
68804;SHT31;55787;52.678;13.314;2023-06-04T09:57:15;33.49;19.91
68804;SHT31;55787;52.678;13.314;2023-06-04T09:59:49;33.21;18.62
68804;SHT31;55787;52.678;13.314;2023-06-04T10:02:20;34.28;18.76
68804;SHT31;55787;52.678;13.314;2023-06-04T10:04:54;34.23;19.07
68804;SHT31;55787;52.678;13.314;2023-06-04T10:07:26;32.66;17.84
68804;SHT31;55787;52.678;13.314;2023-06-04T10:09:53;34.20;20.07
68804;SHT31;55787;52.678;13.314;2023-06-04T10:12:26;33.24;18.88
68804;SHT31;55787;52.678;13.314;2023-06-04T10:15:00;33.59;19.57
68804;SHT31;55787;52.678;13.314;2023-06-04T10:17:28;34.21;20.58
68804;SHT31;55787;52.678;13.314;2023-06-04T10:19:58;34.34;19.40
68804;SHT31;55787;52.678;13.314;2023-06-04T10:22:25;34.77;19.31
68804;SHT31;55787;52.678;13.314;2023-06-04T10:24:52;34.54;19.31
68804;SHT31;55787;52.678;13.314;2023-06-04T10:27:19;28.48;21.85
68804;SHT31;55787;52.678;13.314;2023-06-04T10:29:47;31.41;21.95
68804;SHT31;55787;52.678;13.314;2023-06-04T10:32:14;32.06;19.09
68804;SHT31;55787;52.678;13.314;2023-06-04T10:34:41;32.48;19.72
68804;SHT31;55787;52.678;13.314;2023-06-04T10:37:21;27.93;23.63
68804;SHT31;55787;52.678;13.314;2023-06-04T10:39:58;30.86;20.70
68804;SHT31;55787;52.678;13.314;2023-06-04T10:42:25;31.06;20.51
68804;SHT31;55787;52.678;13.314;2023-06-04T10:44:54;31.02;22.00
68804;SHT31;55787;52.678;13.314;2023-06-04T10:47:26;28.24;21.90
68804;SHT31;55787;52.678;13.314;2023-06-04T10:49:54;30.72;21.38
68804;SHT31;55787;52.678;13.314;2023-06-04T10:52:22;31.11;20.65
68804;SHT31;55787;52.678;13.314;2023-06-04T10:54:48;31.60;20.43
68804;SHT31;55787;52.678;13.314;2023-06-04T10:57:17;32.35;21.11
68804;SHT31;55787;52.678;13.314;2023-06-04T10:59:54;29.63;21.13
68804;SHT31;55787;52.678;13.314;2023-06-04T11:02:21;32.37;21.40
68804;SHT31;55787;52.678;13.314;2023-06-04T11:07:46;30.48;20.64
68804;SHT31;55787;52.678;13.314;2023-06-04T11:10:14;28.84;23.11
68804;SHT31;55787;52.678;13.314;2023-06-04T11:12:43;28.07;22.78
68804;SHT31;55787;52.678;13.314;2023-06-04T11:15:10;27.46;23.75
68804;SHT31;55787;52.678;13.314;2023-06-04T11:17:37;28.87;24.01
68804;SHT31;55787;52.678;13.314;2023-06-04T11:20:04;30.89;21.08
68804;SHT31;55787;52.678;13.314;2023-06-04T11:22:41;32.33;21.09
68804;SHT31;55787;52.678;13.314;2023-06-04T11:25:08;32.91;20.68
68804;SHT31;55787;52.678;13.314;2023-06-04T11:27:35;32.96;19.45
68804;SHT31;55787;52.678;13.314;2023-06-04T11:30:06;33.44;20.65
68804;SHT31;55787;52.678;13.314;2023-06-04T11:32:33;33.15;19.10
68804;SHT31;55787;52.678;13.314;2023-06-04T11:35:03;32.59;21.36
68804;SHT31;55787;52.678;13.314;2023-06-04T11:37:31;32.97;19.89
68804;SHT31;55787;52.678;13.314;2023-06-04T11:39:59;32.13;21.13
68804;SHT31;55787;52.678;13.314;2023-06-04T11:42:27;30.46;20.26
68804;SHT31;55787;52.678;13.314;2023-06-04T11:44:58;28.67;21.95
68804;SHT31;55787;52.678;13.314;2023-06-04T11:47:25;29.50;22.50
68804;SHT31;55787;52.678;13.314;2023-06-04T11:49:55;30.38;20.71
68804;SHT31;55787;52.678;13.314;2023-06-04T11:52:24;31.75;20.32
68804;SHT31;55787;52.678;13.314;2023-06-04T11:54:51;32.06;20.13
68804;SHT31;55787;52.678;13.314;2023-06-04T11:57:18;32.28;20.61
68804;SHT31;55787;52.678;13.314;2023-06-04T11:59:45;32.79;19.25
68804;SHT31;55787;52.678;13.314;2023-06-04T12:02:12;32.69;19.30
68804;SHT31;55787;52.678;13.314;2023-06-04T12:04:38;32.48;20.20
68804;SHT31;55787;52.678;13.314;2023-06-04T12:07:05;32.18;20.13
68804;SHT31;55787;52.678;13.314;2023-06-04T12:09:33;32.59;20.75
68804;SHT31;55787;52.678;13.314;2023-06-04T12:12:03;32.02;20.33
68804;SHT31;55787;52.678;13.314;2023-06-04T12:14:30;32.16;19.74
68804;SHT31;55787;52.678;13.314;2023-06-04T12:17:08;31.19;20.44
68804;SHT31;55787;52.678;13.314;2023-06-04T12:19:49;32.56;19.62
68804;SHT31;55787;52.678;13.314;2023-06-04T12:22:16;32.41;20.24
68804;SHT31;55787;52.678;13.314;2023-06-04T12:24:49;32.73;19.16
68804;SHT31;55787;52.678;13.314;2023-06-04T12:27:20;32.71;18.55
68804;SHT31;55787;52.678;13.314;2023-06-04T12:30:10;32.64;19.07
68804;SHT31;55787;52.678;13.314;2023-06-04T12:32:37;32.06;20.01
68804;SHT31;55787;52.678;13.314;2023-06-04T12:35:04;31.64;20.40
68804;SHT31;55787;52.678;13.314;2023-06-04T12:37:31;30.15;20.41
68804;SHT31;55787;52.678;13.314;2023-06-04T12:39:58;30.69;20.61
68804;SHT31;55787;52.678;13.314;2023-06-04T12:42:24;31.91;21.21
68804;SHT31;55787;52.678;13.314;2023-06-04T12:44:51;32.48;21.26
68804;SHT31;55787;52.678;13.314;2023-06-04T12:47:18;30.58;20.64
68804;SHT31;55787;52.678;13.314;2023-06-04T12:49:45;30.82;20.73
68804;SHT31;55787;52.678;13.314;2023-06-04T12:52:11;31.02;20.57
68804;SHT31;55787;52.678;13.314;2023-06-04T12:54:42;31.45;20.13
68804;SHT31;55787;52.678;13.314;2023-06-04T12:57:09;31.55;21.32
68804;SHT31;55787;52.678;13.314;2023-06-04T12:59:35;31.75;20.65
68804;SHT31;55787;52.678;13.314;2023-06-04T13:02:02;31.37;21.27
68804;SHT31;55787;52.678;13.314;2023-06-04T13:04:29;31.17;20.72
68804;SHT31;55787;52.678;13.314;2023-06-04T13:06:56;31.31;21.28
68804;SHT31;55787;52.678;13.314;2023-06-04T13:09:26;31.50;20.23
68804;SHT31;55787;52.678;13.314;2023-06-04T13:11:54;30.97;21.07
68804;SHT31;55787;52.678;13.314;2023-06-04T13:14:21;30.43;21.96
68804;SHT31;55787;52.678;13.314;2023-06-04T13:16:48;30.24;21.55
68804;SHT31;55787;52.678;13.314;2023-06-04T13:19:15;29.87;21.96
68804;SHT31;55787;52.678;13.314;2023-06-04T13:21:42;29.67;23.51
68804;SHT31;55787;52.678;13.314;2023-06-04T13:24:10;29.69;22.65
68804;SHT31;55787;52.678;13.314;2023-06-04T13:26:37;29.45;21.69
68804;SHT31;55787;52.678;13.314;2023-06-04T13:29:05;29.60;23.76
68804;SHT31;55787;52.678;13.314;2023-06-04T13:31:32;29.50;23.75
68804;SHT31;55787;52.678;13.314;2023-06-04T13:33:59;29.40;23.93
68804;SHT31;55787;52.678;13.314;2023-06-04T13:36:31;29.59;23.68
68804;SHT31;55787;52.678;13.314;2023-06-04T13:38:58;29.54;22.76
68804;SHT31;55787;52.678;13.314;2023-06-04T13:41:25;28.82;22.78
68804;SHT31;55787;52.678;13.314;2023-06-04T13:43:52;28.16;23.74
68804;SHT31;55787;52.678;13.314;2023-06-04T13:46:19;28.40;24.62
68804;SHT31;55787;52.678;13.314;2023-06-04T13:48:46;28.48;24.08
68804;SHT31;55787;52.678;13.314;2023-06-04T13:51:12;27.90;24.72
68804;SHT31;55787;52.678;13.314;2023-06-04T13:53:39;28.06;22.86
68804;SHT31;55787;52.678;13.314;2023-06-04T13:56:06;28.41;24.05
68804;SHT31;55787;52.678;13.314;2023-06-04T13:58:32;28.44;23.32
68804;SHT31;55787;52.678;13.314;2023-06-04T14:00:59;28.27;23.80
68804;SHT31;55787;52.678;13.314;2023-06-04T14:03:26;28.23;24.06
68804;SHT31;55787;52.678;13.314;2023-06-04T14:05:53;28.27;23.41
68804;SHT31;55787;52.678;13.314;2023-06-04T14:08:19;28.23;24.72
68804;SHT31;55787;52.678;13.314;2023-06-04T14:10:46;28.21;24.00
68804;SHT31;55787;52.678;13.314;2023-06-04T14:13:12;28.26;23.95
68804;SHT31;55787;52.678;13.314;2023-06-04T14:15:39;27.89;22.89
68804;SHT31;55787;52.678;13.314;2023-06-04T14:18:06;28.07;22.95
68804;SHT31;55787;52.678;13.314;2023-06-04T14:20:34;27.72;23.09
68804;SHT31;55787;52.678;13.314;2023-06-04T14:23:01;27.62;24.51
68804;SHT31;55787;52.678;13.314;2023-06-04T14:25:27;27.88;24.65
68804;SHT31;55787;52.678;13.314;2023-06-04T14:27:54;27.78;23.68
68804;SHT31;55787;52.678;13.314;2023-06-04T14:30:21;27.62;25.39
68804;SHT31;55787;52.678;13.314;2023-06-04T14:32:48;27.65;24.57
68804;SHT31;55787;52.678;13.314;2023-06-04T14:35:15;27.54;25.79
68804;SHT31;55787;52.678;13.314;2023-06-04T14:37:41;27.30;24.12
68804;SHT31;55787;52.678;13.314;2023-06-04T14:40:08;27.30;23.78
68804;SHT31;55787;52.678;13.314;2023-06-04T14:42:35;27.04;25.65
68804;SHT31;55787;52.678;13.314;2023-06-04T14:45:02;27.11;25.37
68804;SHT31;55787;52.678;13.314;2023-06-04T14:47:29;27.17;25.48
68804;SHT31;55787;52.678;13.314;2023-06-04T14:49:56;27.12;25.55
68804;SHT31;55787;52.678;13.314;2023-06-04T14:52:23;26.94;24.11
68804;SHT31;55787;52.678;13.314;2023-06-04T14:54:50;26.90;25.45
68804;SHT31;55787;52.678;13.314;2023-06-04T14:57:19;26.91;26.11
68804;SHT31;55787;52.678;13.314;2023-06-04T14:59:48;26.76;25.65
68804;SHT31;55787;52.678;13.314;2023-06-04T15:02:14;26.88;25.52
68804;SHT31;55787;52.678;13.314;2023-06-04T15:04:46;26.69;25.63
68804;SHT31;55787;52.678;13.314;2023-06-04T15:07:13;26.69;24.82
68804;SHT31;55787;52.678;13.314;2023-06-04T15:13:06;26.39;24.62
68804;SHT31;55787;52.678;13.314;2023-06-04T15:15:45;26.24;24.63
68804;SHT31;55787;52.678;13.314;2023-06-04T15:18:12;26.18;25.19
68804;SHT31;55787;52.678;13.314;2023-06-04T15:20:39;25.98;26.42
68804;SHT31;55787;52.678;13.314;2023-06-04T15:23:05;25.89;24.90
68804;SHT31;55787;52.678;13.314;2023-06-04T15:25:32;25.89;25.93
68804;SHT31;55787;52.678;13.314;2023-06-04T15:27:59;25.87;26.40
68804;SHT31;55787;52.678;13.314;2023-06-04T15:30:26;25.85;27.47
68804;SHT31;55787;52.678;13.314;2023-06-04T15:32:53;25.87;26.39
68804;SHT31;55787;52.678;13.314;2023-06-04T15:35:19;25.88;27.25